sensor_id;sensor_type;location;lat;lon;timestamp;P1;durP1;ratioP1;P2;durP2;ratioP2
15449;SDS011;7826;49.784;9.934;2023-07-29T00:00:04;5.73;;;4.57;;
15449;SDS011;7826;49.784;9.934;2023-07-29T00:02:32;5.33;;;4.93;;
15449;SDS011;7826;49.784;9.934;2023-07-29T00:04:59;5.93;;;5.43;;
15449;SDS011;7826;49.784;9.934;2023-07-29T00:07:25;5.67;;;5.17;;
15449;SDS011;7826;49.784;9.934;2023-07-29T00:09:52;6.00;;;5.37;;
15449;SDS011;7826;49.784;9.934;2023-07-29T00:12:18;5.83;;;4.90;;
15449;SDS011;7826;49.784;9.934;2023-07-29T00:14:45;5.20;;;4.80;;
15449;SDS011;7826;49.784;9.934;2023-07-29T00:17:11;5.03;;;4.63;;
15449;SDS011;7826;49.784;9.934;2023-07-29T00:19:38;5.07;;;4.67;;
15449;SDS011;7826;49.784;9.934;2023-07-29T00:22:05;6.03;;;4.77;;
15449;SDS011;7826;49.784;9.934;2023-07-29T00:24:31;5.40;;;4.90;;
15449;SDS011;7826;49.784;9.934;2023-07-29T00:26:58;5.43;;;5.03;;
15449;SDS011;7826;49.784;9.934;2023-07-29T00:29:24;5.50;;;5.00;;
15449;SDS011;7826;49.784;9.934;2023-07-29T00:31:51;5.30;;;4.90;;
15449;SDS011;7826;49.784;9.934;2023-07-29T00:34:17;5.47;;;4.97;;
15449;SDS011;7826;49.784;9.934;2023-07-29T00:36:45;5.10;;;4.70;;
15449;SDS011;7826;49.784;9.934;2023-07-29T00:39:12;5.57;;;4.93;;
15449;SDS011;7826;49.784;9.934;2023-07-29T00:41:38;5.17;;;4.73;;
15449;SDS011;7826;49.784;9.934;2023-07-29T00:44:06;4.93;;;4.40;;
15449;SDS011;7826;49.784;9.934;2023-07-29T00:46:33;5.50;;;5.00;;
15449;SDS011;7826;49.784;9.934;2023-07-29T00:49:02;4.83;;;4.50;;
15449;SDS011;7826;49.784;9.934;2023-07-29T00:51:28;5.10;;;4.53;;
15449;SDS011;7826;49.784;9.934;2023-07-29T00:53:55;5.53;;;5.03;;
15449;SDS011;7826;49.784;9.934;2023-07-29T00:56:21;5.30;;;4.80;;
15449;SDS011;7826;49.784;9.934;2023-07-29T00:58:48;5.80;;;4.97;;
15449;SDS011;7826;49.784;9.934;2023-07-29T01:01:15;5.10;;;4.60;;
15449;SDS011;7826;49.784;9.934;2023-07-29T01:03:41;5.00;;;4.60;;
15449;SDS011;7826;49.784;9.934;2023-07-29T01:16:53;5.33;;;4.80;;
15449;SDS011;7826;49.784;9.934;2023-07-29T01:22:36;5.90;;;5.40;;
15449;SDS011;7826;49.784;9.934;2023-07-29T01:25:03;6.17;;;5.60;;
15449;SDS011;7826;49.784;9.934;2023-07-29T01:27:30;5.93;;;5.37;;
15449;SDS011;7826;49.784;9.934;2023-07-29T01:29:57;7.20;;;5.43;;
15449;SDS011;7826;49.784;9.934;2023-07-29T01:37:25;5.40;;;5.00;;
15449;SDS011;7826;49.784;9.934;2023-07-29T01:39:57;7.07;;;5.40;;
15449;SDS011;7826;49.784;9.934;2023-07-29T01:42:25;7.30;;;5.77;;
15449;SDS011;7826;49.784;9.934;2023-07-29T01:44:52;6.97;;;5.40;;
15449;SDS011;7826;49.784;9.934;2023-07-29T01:47:20;6.00;;;5.20;;
15449;SDS011;7826;49.784;9.934;2023-07-29T01:49:48;8.20;;;5.50;;
15449;SDS011;7826;49.784;9.934;2023-07-29T01:52:14;6.27;;;5.67;;
15449;SDS011;7826;49.784;9.934;2023-07-29T01:54:41;6.07;;;5.47;;
15449;SDS011;7826;49.784;9.934;2023-07-29T01:57:07;6.77;;;6.00;;
15449;SDS011;7826;49.784;9.934;2023-07-29T01:59:34;7.03;;;5.47;;
15449;SDS011;7826;49.784;9.934;2023-07-29T02:02:00;5.33;;;4.83;;
15449;SDS011;7826;49.784;9.934;2023-07-29T02:04:27;5.50;;;5.00;;
15449;SDS011;7826;49.784;9.934;2023-07-29T02:06:54;5.57;;;5.07;;
15449;SDS011;7826;49.784;9.934;2023-07-29T02:09:20;6.17;;;5.60;;
15449;SDS011;7826;49.784;9.934;2023-07-29T02:11:47;5.87;;;5.37;;
15449;SDS011;7826;49.784;9.934;2023-07-29T02:14:13;6.43;;;5.83;;
15449;SDS011;7826;49.784;9.934;2023-07-29T02:16:40;7.30;;;5.57;;
15449;SDS011;7826;49.784;9.934;2023-07-29T02:19:07;8.03;;;6.37;;
15449;SDS011;7826;49.784;9.934;2023-07-29T02:21:34;6.40;;;5.80;;
15449;SDS011;7826;49.784;9.934;2023-07-29T02:24:00;7.27;;;6.57;;
15449;SDS011;7826;49.784;9.934;2023-07-29T02:26:27;6.90;;;6.20;;
15449;SDS011;7826;49.784;9.934;2023-07-29T02:28:53;6.43;;;5.60;;
15449;SDS011;7826;49.784;9.934;2023-07-29T02:31:24;6.10;;;5.60;;
15449;SDS011;7826;49.784;9.934;2023-07-29T02:33:51;6.13;;;5.53;;
15449;SDS011;7826;49.784;9.934;2023-07-29T02:36:17;7.57;;;5.80;;
15449;SDS011;7826;49.784;9.934;2023-07-29T02:38:44;6.57;;;5.97;;
15449;SDS011;7826;49.784;9.934;2023-07-29T02:41:11;6.97;;;6.33;;
15449;SDS011;7826;49.784;9.934;2023-07-29T02:43:38;6.87;;;6.17;;
15449;SDS011;7826;49.784;9.934;2023-07-29T02:46:06;8.17;;;6.63;;
15449;SDS011;7826;49.784;9.934;2023-07-29T02:48:33;7.90;;;7.13;;
15449;SDS011;7826;49.784;9.934;2023-07-29T02:50:59;7.07;;;6.47;;
15449;SDS011;7826;49.784;9.934;2023-07-29T02:53:26;7.03;;;6.43;;
15449;SDS011;7826;49.784;9.934;2023-07-29T02:55:52;6.83;;;6.20;;
15449;SDS011;7826;49.784;9.934;2023-07-29T02:58:20;7.50;;;6.80;;
15449;SDS011;7826;49.784;9.934;2023-07-29T03:00:46;8.13;;;7.43;;
15449;SDS011;7826;49.784;9.934;2023-07-29T03:03:14;8.10;;;7.30;;
15449;SDS011;7826;49.784;9.934;2023-07-29T03:05:40;7.63;;;6.93;;
15449;SDS011;7826;49.784;9.934;2023-07-29T03:08:07;8.63;;;7.67;;
15449;SDS011;7826;49.784;9.934;2023-07-29T03:10:34;8.23;;;7.13;;
15449;SDS011;7826;49.784;9.934;2023-07-29T03:13:02;7.70;;;6.80;;
15449;SDS011;7826;49.784;9.934;2023-07-29T03:15:29;7.93;;;7.03;;
15449;SDS011;7826;49.784;9.934;2023-07-29T03:17:55;8.17;;;7.27;;
15449;SDS011;7826;49.784;9.934;2023-07-29T03:20:22;7.73;;;6.50;;
15449;SDS011;7826;49.784;9.934;2023-07-29T03:22:48;8.30;;;6.80;;
15449;SDS011;7826;49.784;9.934;2023-07-29T03:25:14;7.97;;;7.23;;
15449;SDS011;7826;49.784;9.934;2023-07-29T03:27:41;8.67;;;6.57;;
15449;SDS011;7826;49.784;9.934;2023-07-29T03:30:08;7.93;;;7.20;;
15449;SDS011;7826;49.784;9.934;2023-07-29T03:32:34;9.57;;;7.93;;
15449;SDS011;7826;49.784;9.934;2023-07-29T03:35:01;8.33;;;6.73;;
15449;SDS011;7826;49.784;9.934;2023-07-29T03:37:27;8.37;;;6.70;;
15449;SDS011;7826;49.784;9.934;2023-07-29T03:39:54;7.50;;;6.80;;
15449;SDS011;7826;49.784;9.934;2023-07-29T03:42:20;7.07;;;6.13;;
15449;SDS011;7826;49.784;9.934;2023-07-29T03:44:47;8.53;;;6.90;;
15449;SDS011;7826;49.784;9.934;2023-07-29T03:47:13;7.70;;;6.50;;
15449;SDS011;7826;49.784;9.934;2023-07-29T03:49:40;7.97;;;6.53;;
15449;SDS011;7826;49.784;9.934;2023-07-29T03:52:06;8.10;;;7.00;;
15449;SDS011;7826;49.784;9.934;2023-07-29T03:54:33;8.07;;;6.67;;
15449;SDS011;7826;49.784;9.934;2023-07-29T03:56:59;7.97;;;7.17;;
15449;SDS011;7826;49.784;9.934;2023-07-29T03:59:26;6.53;;;5.93;;
15449;SDS011;7826;49.784;9.934;2023-07-29T04:01:53;7.00;;;6.23;;
15449;SDS011;7826;49.784;9.934;2023-07-29T04:04:19;6.50;;;5.80;;
15449;SDS011;7826;49.784;9.934;2023-07-29T04:06:46;8.53;;;5.77;;
15449;SDS011;7826;49.784;9.934;2023-07-29T04:09:13;6.43;;;5.83;;
15449;SDS011;7826;49.784;9.934;2023-07-29T04:11:39;6.33;;;5.83;;
15449;SDS011;7826;49.784;9.934;2023-07-29T04:14:06;7.50;;;6.73;;
15449;SDS011;7826;49.784;9.934;2023-07-29T04:16:32;7.83;;;5.87;;
15449;SDS011;7826;49.784;9.934;2023-07-29T04:18:59;7.47;;;5.57;;
15449;SDS011;7826;49.784;9.934;2023-07-29T04:21:26;7.00;;;6.27;;
15449;SDS011;7826;49.784;9.934;2023-07-29T04:23:52;5.80;;;5.30;;
15449;SDS011;7826;49.784;9.934;2023-07-29T04:26:19;5.77;;;5.27;;
15449;SDS011;7826;49.784;9.934;2023-07-29T04:28:45;6.47;;;5.87;;
15449;SDS011;7826;49.784;9.934;2023-07-29T04:31:12;7.03;;;6.43;;
15449;SDS011;7826;49.784;9.934;2023-07-29T04:33:38;6.93;;;5.80;;
15449;SDS011;7826;49.784;9.934;2023-07-29T04:36:05;5.93;;;5.43;;
15449;SDS011;7826;49.784;9.934;2023-07-29T04:38:32;8.13;;;5.70;;
15449;SDS011;7826;49.784;9.934;2023-07-29T04:40:59;5.83;;;5.23;;
15449;SDS011;7826;49.784;9.934;2023-07-29T04:43:28;6.83;;;5.93;;
15449;SDS011;7826;49.784;9.934;2023-07-29T04:45:56;6.27;;;5.77;;
15449;SDS011;7826;49.784;9.934;2023-07-29T04:48:23;6.27;;;5.67;;
15449;SDS011;7826;49.784;9.934;2023-07-29T04:50:50;6.90;;;6.20;;
15449;SDS011;7826;49.784;9.934;2023-07-29T04:53:16;6.90;;;6.30;;
15449;SDS011;7826;49.784;9.934;2023-07-29T04:55:43;9.07;;;5.97;;
15449;SDS011;7826;49.784;9.934;2023-07-29T04:58:09;7.10;;;6.40;;
15449;SDS011;7826;49.784;9.934;2023-07-29T05:00:36;6.03;;;5.47;;
15449;SDS011;7826;49.784;9.934;2023-07-29T05:03:02;6.80;;;5.73;;
15449;SDS011;7826;49.784;9.934;2023-07-29T05:05:29;8.00;;;5.60;;
15449;SDS011;7826;49.784;9.934;2023-07-29T05:07:55;6.13;;;5.50;;
15449;SDS011;7826;49.784;9.934;2023-07-29T05:10:22;6.93;;;5.50;;
15449;SDS011;7826;49.784;9.934;2023-07-29T05:12:48;5.50;;;5.10;;
15449;SDS011;7826;49.784;9.934;2023-07-29T05:15:15;5.90;;;5.33;;
15449;SDS011;7826;49.784;9.934;2023-07-29T05:17:42;6.97;;;5.43;;
15449;SDS011;7826;49.784;9.934;2023-07-29T05:20:08;5.87;;;5.37;;
15449;SDS011;7826;49.784;9.934;2023-07-29T05:22:49;5.60;;;5.10;;
15449;SDS011;7826;49.784;9.934;2023-07-29T05:25:30;6.20;;;4.53;;
15449;SDS011;7826;49.784;9.934;2023-07-29T05:28:11;5.03;;;4.53;;
15449;SDS011;7826;49.784;9.934;2023-07-29T05:30:52;4.70;;;4.20;;
15449;SDS011;7826;49.784;9.934;2023-07-29T05:33:33;5.17;;;4.67;;
15449;SDS011;7826;49.784;9.934;2023-07-29T05:35:59;4.97;;;4.50;;
15449;SDS011;7826;49.784;9.934;2023-07-29T05:38:26;6.40;;;5.00;;
15449;SDS011;7826;49.784;9.934;2023-07-29T05:40:52;4.77;;;4.33;;
15449;SDS011;7826;49.784;9.934;2023-07-29T05:43:19;5.07;;;4.57;;
15449;SDS011;7826;49.784;9.934;2023-07-29T05:45:45;5.30;;;4.90;;
15449;SDS011;7826;49.784;9.934;2023-07-29T05:48:12;4.33;;;4.03;;
15449;SDS011;7826;49.784;9.934;2023-07-29T05:50:38;4.60;;;4.20;;
15449;SDS011;7826;49.784;9.934;2023-07-29T05:53:05;4.57;;;4.17;;
15449;SDS011;7826;49.784;9.934;2023-07-29T05:55:31;4.87;;;4.43;;
15449;SDS011;7826;49.784;9.934;2023-07-29T05:57:58;6.10;;;4.50;;
15449;SDS011;7826;49.784;9.934;2023-07-29T06:00:25;5.07;;;4.57;;
15449;SDS011;7826;49.784;9.934;2023-07-29T06:02:51;5.00;;;4.50;;
15449;SDS011;7826;49.784;9.934;2023-07-29T06:05:17;4.73;;;4.17;;
15449;SDS011;7826;49.784;9.934;2023-07-29T06:07:44;4.77;;;4.37;;
15449;SDS011;7826;49.784;9.934;2023-07-29T06:10:14;4.87;;;4.30;;
15449;SDS011;7826;49.784;9.934;2023-07-29T06:12:45;4.50;;;4.20;;
15449;SDS011;7826;49.784;9.934;2023-07-29T06:15:12;4.33;;;4.00;;
15449;SDS011;7826;49.784;9.934;2023-07-29T06:17:39;4.97;;;4.50;;
15449;SDS011;7826;49.784;9.934;2023-07-29T06:20:06;4.77;;;3.93;;
15449;SDS011;7826;49.784;9.934;2023-07-29T06:22:33;4.40;;;4.00;;
15449;SDS011;7826;49.784;9.934;2023-07-29T06:25:00;5.97;;;4.30;;
15449;SDS011;7826;49.784;9.934;2023-07-29T06:27:26;4.93;;;3.80;;
15449;SDS011;7826;49.784;9.934;2023-07-29T06:29:53;4.63;;;3.93;;
15449;SDS011;7826;49.784;9.934;2023-07-29T06:32:19;3.93;;;3.63;;
15449;SDS011;7826;49.784;9.934;2023-07-29T06:34:45;4.23;;;3.93;;
15449;SDS011;7826;49.784;9.934;2023-07-29T06:37:12;3.97;;;3.63;;
15449;SDS011;7826;49.784;9.934;2023-07-29T06:39:38;4.60;;;4.20;;
15449;SDS011;7826;49.784;9.934;2023-07-29T06:42:05;3.90;;;3.60;;
15449;SDS011;7826;49.784;9.934;2023-07-29T06:44:32;4.10;;;3.77;;
15449;SDS011;7826;49.784;9.934;2023-07-29T06:46:58;4.30;;;4.00;;
15449;SDS011;7826;49.784;9.934;2023-07-29T06:49:25;3.93;;;3.63;;
15449;SDS011;7826;49.784;9.934;2023-07-29T06:51:51;5.00;;;3.47;;
15449;SDS011;7826;49.784;9.934;2023-07-29T06:54:18;5.07;;;3.50;;
15449;SDS011;7826;49.784;9.934;2023-07-29T06:56:44;3.83;;;3.17;;
15449;SDS011;7826;49.784;9.934;2023-07-29T06:59:11;4.00;;;3.33;;
15449;SDS011;7826;49.784;9.934;2023-07-29T07:01:37;3.87;;;3.57;;
15449;SDS011;7826;49.784;9.934;2023-07-29T07:04:04;4.10;;;3.80;;
15449;SDS011;7826;49.784;9.934;2023-07-29T07:06:30;3.73;;;3.40;;
15449;SDS011;7826;49.784;9.934;2023-07-29T07:08:57;3.93;;;3.63;;
15449;SDS011;7826;49.784;9.934;2023-07-29T07:11:23;3.40;;;3.20;;
15449;SDS011;7826;49.784;9.934;2023-07-29T07:13:50;3.83;;;3.30;;
15449;SDS011;7826;49.784;9.934;2023-07-29T07:16:16;3.30;;;3.10;;
15449;SDS011;7826;49.784;9.934;2023-07-29T07:18:43;3.97;;;3.67;;
15449;SDS011;7826;49.784;9.934;2023-07-29T07:21:09;3.40;;;3.13;;
15449;SDS011;7826;49.784;9.934;2023-07-29T07:23:36;3.63;;;3.23;;
15449;SDS011;7826;49.784;9.934;2023-07-29T07:26:02;2.93;;;2.73;;
15449;SDS011;7826;49.784;9.934;2023-07-29T07:28:29;4.50;;;3.20;;
15449;SDS011;7826;49.784;9.934;2023-07-29T07:30:55;3.20;;;3.00;;
15449;SDS011;7826;49.784;9.934;2023-07-29T07:33:23;3.20;;;2.73;;
15449;SDS011;7826;49.784;9.934;2023-07-29T07:35:49;3.63;;;2.90;;
15449;SDS011;7826;49.784;9.934;2023-07-29T07:38:16;3.57;;;2.60;;
15449;SDS011;7826;49.784;9.934;2023-07-29T07:40:43;6.93;;;3.00;;
15449;SDS011;7826;49.784;9.934;2023-07-29T07:43:22;2.93;;;2.67;;
15449;SDS011;7826;49.784;9.934;2023-07-29T07:45:49;3.70;;;2.40;;
15449;SDS011;7826;49.784;9.934;2023-07-29T07:48:15;2.70;;;2.50;;
15449;SDS011;7826;49.784;9.934;2023-07-29T07:50:46;6.93;;;2.77;;
15449;SDS011;7826;49.784;9.934;2023-07-29T07:53:12;2.53;;;2.40;;
15449;SDS011;7826;49.784;9.934;2023-07-29T07:55:38;2.50;;;2.30;;
15449;SDS011;7826;49.784;9.934;2023-07-29T07:58:05;2.80;;;2.50;;
15449;SDS011;7826;49.784;9.934;2023-07-29T08:00:31;3.20;;;2.70;;
15449;SDS011;7826;49.784;9.934;2023-07-29T08:02:58;3.40;;;2.97;;
15449;SDS011;7826;49.784;9.934;2023-07-29T08:05:24;3.03;;;2.83;;
15449;SDS011;7826;49.784;9.934;2023-07-29T08:07:50;2.90;;;2.70;;
15449;SDS011;7826;49.784;9.934;2023-07-29T08:10:16;3.70;;;2.60;;
15449;SDS011;7826;49.784;9.934;2023-07-29T08:12:42;2.57;;;2.40;;
15449;SDS011;7826;49.784;9.934;2023-07-29T08:15:09;2.60;;;2.40;;
15449;SDS011;7826;49.784;9.934;2023-07-29T08:17:35;2.40;;;2.30;;
15449;SDS011;7826;49.784;9.934;2023-07-29T08:20:02;2.70;;;2.50;;
15449;SDS011;7826;49.784;9.934;2023-07-29T08:22:29;2.63;;;2.40;;
15449;SDS011;7826;49.784;9.934;2023-07-29T08:24:55;2.57;;;2.47;;
15449;SDS011;7826;49.784;9.934;2023-07-29T08:27:22;2.57;;;2.47;;
15449;SDS011;7826;49.784;9.934;2023-07-29T08:29:48;2.57;;;2.37;;
15449;SDS011;7826;49.784;9.934;2023-07-29T08:32:15;2.73;;;2.53;;
15449;SDS011;7826;49.784;9.934;2023-07-29T08:34:41;2.77;;;2.67;;
15449;SDS011;7826;49.784;9.934;2023-07-29T08:37:08;3.40;;;2.63;;
15449;SDS011;7826;49.784;9.934;2023-07-29T08:39:34;3.10;;;2.70;;
15449;SDS011;7826;49.784;9.934;2023-07-29T08:42:02;2.90;;;2.70;;
15449;SDS011;7826;49.784;9.934;2023-07-29T08:44:35;2.63;;;2.53;;
15449;SDS011;7826;49.784;9.934;2023-07-29T08:47:09;2.97;;;2.70;;
15449;SDS011;7826;49.784;9.934;2023-07-29T08:49:36;3.13;;;2.33;;
15449;SDS011;7826;49.784;9.934;2023-07-29T08:52:04;3.00;;;2.80;;
15449;SDS011;7826;49.784;9.934;2023-07-29T08:54:32;3.73;;;3.00;;
15449;SDS011;7826;49.784;9.934;2023-07-29T08:56:58;2.90;;;2.70;;
15449;SDS011;7826;49.784;9.934;2023-07-29T08:59:25;3.00;;;2.80;;
15449;SDS011;7826;49.784;9.934;2023-07-29T09:01:51;2.80;;;2.63;;
15449;SDS011;7826;49.784;9.934;2023-07-29T09:04:20;2.90;;;2.70;;
15449;SDS011;7826;49.784;9.934;2023-07-29T09:06:47;2.80;;;2.60;;
15449;SDS011;7826;49.784;9.934;2023-07-29T09:09:16;2.50;;;2.40;;
15449;SDS011;7826;49.784;9.934;2023-07-29T09:11:43;2.60;;;2.50;;
15449;SDS011;7826;49.784;9.934;2023-07-29T09:14:10;3.10;;;2.63;;
15449;SDS011;7826;49.784;9.934;2023-07-29T09:16:37;2.80;;;2.57;;
15449;SDS011;7826;49.784;9.934;2023-07-29T09:19:04;3.53;;;3.23;;
15449;SDS011;7826;49.784;9.934;2023-07-29T09:21:31;2.87;;;2.67;;
15449;SDS011;7826;49.784;9.934;2023-07-29T09:23:58;2.97;;;2.77;;
15449;SDS011;7826;49.784;9.934;2023-07-29T09:26:29;2.80;;;2.60;;
15449;SDS011;7826;49.784;9.934;2023-07-29T09:28:58;2.60;;;2.40;;
15449;SDS011;7826;49.784;9.934;2023-07-29T09:31:26;3.10;;;2.90;;
15449;SDS011;7826;49.784;9.934;2023-07-29T09:33:57;2.87;;;2.60;;
15449;SDS011;7826;49.784;9.934;2023-07-29T09:36:30;3.67;;;2.70;;
15449;SDS011;7826;49.784;9.934;2023-07-29T09:38:57;2.80;;;2.60;;
15449;SDS011;7826;49.784;9.934;2023-07-29T09:41:25;2.73;;;2.53;;
15449;SDS011;7826;49.784;9.934;2023-07-29T09:43:59;3.30;;;2.93;;
15449;SDS011;7826;49.784;9.934;2023-07-29T09:46:34;2.70;;;2.50;;
15449;SDS011;7826;49.784;9.934;2023-07-29T09:49:02;2.73;;;2.63;;
15449;SDS011;7826;49.784;9.934;2023-07-29T09:51:31;2.73;;;2.60;;
15449;SDS011;7826;49.784;9.934;2023-07-29T09:54:02;2.70;;;2.60;;
15449;SDS011;7826;49.784;9.934;2023-07-29T09:56:29;3.93;;;2.63;;
15449;SDS011;7826;49.784;9.934;2023-07-29T09:58:56;2.57;;;2.47;;
15449;SDS011;7826;49.784;9.934;2023-07-29T10:01:23;4.33;;;2.40;;
15449;SDS011;7826;49.784;9.934;2023-07-29T10:03:50;2.80;;;2.60;;
15449;SDS011;7826;49.784;9.934;2023-07-29T10:06:17;2.93;;;2.67;;
15449;SDS011;7826;49.784;9.934;2023-07-29T10:08:44;2.90;;;2.37;;
15449;SDS011;7826;49.784;9.934;2023-07-29T10:11:11;2.10;;;1.90;;
15449;SDS011;7826;49.784;9.934;2023-07-29T10:13:38;2.33;;;2.23;;
15449;SDS011;7826;49.784;9.934;2023-07-29T10:16:05;2.33;;;2.13;;
15449;SDS011;7826;49.784;9.934;2023-07-29T10:18:32;2.37;;;2.17;;
15449;SDS011;7826;49.784;9.934;2023-07-29T10:20:59;2.23;;;2.13;;
15449;SDS011;7826;49.784;9.934;2023-07-29T10:23:28;2.40;;;2.20;;
15449;SDS011;7826;49.784;9.934;2023-07-29T10:26:05;2.40;;;2.20;;
15449;SDS011;7826;49.784;9.934;2023-07-29T10:28:33;2.53;;;2.33;;
15449;SDS011;7826;49.784;9.934;2023-07-29T10:31:05;4.67;;;3.00;;
15449;SDS011;7826;49.784;9.934;2023-07-29T10:33:32;4.23;;;3.20;;
15449;SDS011;7826;49.784;9.934;2023-07-29T10:36:00;8.33;;;3.00;;
15449;SDS011;7826;49.784;9.934;2023-07-29T10:38:27;4.80;;;3.40;;
15449;SDS011;7826;49.784;9.934;2023-07-29T10:40:55;4.43;;;3.10;;
15449;SDS011;7826;49.784;9.934;2023-07-29T10:43:25;3.70;;;3.43;;
15449;SDS011;7826;49.784;9.934;2023-07-29T10:45:53;3.93;;;3.03;;
15449;SDS011;7826;49.784;9.934;2023-07-29T10:51:21;3.53;;;2.33;;
15449;SDS011;7826;49.784;9.934;2023-07-29T10:53:48;3.77;;;2.23;;
15449;SDS011;7826;49.784;9.934;2023-07-29T10:56:32;2.80;;;2.60;;
15449;SDS011;7826;49.784;9.934;2023-07-29T11:01:39;2.33;;;2.23;;
15449;SDS011;7826;49.784;9.934;2023-07-29T11:17:48;2.80;;;2.57;;
15449;SDS011;7826;49.784;9.934;2023-07-29T11:20:17;3.90;;;2.60;;
15449;SDS011;7826;49.784;9.934;2023-07-29T11:22:45;3.03;;;2.63;;
15449;SDS011;7826;49.784;9.934;2023-07-29T11:25:13;3.57;;;2.73;;
15449;SDS011;7826;49.784;9.934;2023-07-29T11:27:41;3.10;;;2.90;;
15449;SDS011;7826;49.784;9.934;2023-07-29T11:30:09;3.17;;;2.83;;
15449;SDS011;7826;49.784;9.934;2023-07-29T11:32:38;3.40;;;2.80;;
15449;SDS011;7826;49.784;9.934;2023-07-29T11:35:06;6.27;;;3.07;;
15449;SDS011;7826;49.784;9.934;2023-07-29T11:37:35;3.33;;;3.03;;
15449;SDS011;7826;49.784;9.934;2023-07-29T11:40:03;3.13;;;2.83;;
15449;SDS011;7826;49.784;9.934;2023-07-29T11:42:31;2.87;;;2.60;;
15449;SDS011;7826;49.784;9.934;2023-07-29T11:45:01;3.70;;;3.40;;
15449;SDS011;7826;49.784;9.934;2023-07-29T11:47:31;3.27;;;2.97;;
15449;SDS011;7826;49.784;9.934;2023-07-29T11:49:58;3.60;;;3.30;;
15449;SDS011;7826;49.784;9.934;2023-07-29T11:52:28;3.60;;;3.33;;
15449;SDS011;7826;49.784;9.934;2023-07-29T11:54:57;3.47;;;3.17;;
15449;SDS011;7826;49.784;9.934;2023-07-29T11:57:24;3.23;;;3.03;;
15449;SDS011;7826;49.784;9.934;2023-07-29T11:59:50;3.80;;;3.50;;
15449;SDS011;7826;49.784;9.934;2023-07-29T12:02:19;3.73;;;3.33;;
15449;SDS011;7826;49.784;9.934;2023-07-29T12:04:47;4.57;;;3.53;;
15449;SDS011;7826;49.784;9.934;2023-07-29T12:07:14;3.63;;;3.33;;
15449;SDS011;7826;49.784;9.934;2023-07-29T12:09:42;3.53;;;3.30;;
15449;SDS011;7826;49.784;9.934;2023-07-29T12:12:09;4.23;;;3.90;;
15449;SDS011;7826;49.784;9.934;2023-07-29T12:14:36;3.20;;;3.00;;
15449;SDS011;7826;49.784;9.934;2023-07-29T12:17:03;3.80;;;3.30;;
15449;SDS011;7826;49.784;9.934;2023-07-29T12:19:35;3.53;;;3.23;;
15449;SDS011;7826;49.784;9.934;2023-07-29T12:22:03;3.43;;;3.23;;
15449;SDS011;7826;49.784;9.934;2023-07-29T12:24:31;3.47;;;3.27;;
15449;SDS011;7826;49.784;9.934;2023-07-29T12:26:59;3.73;;;3.43;;
15449;SDS011;7826;49.784;9.934;2023-07-29T12:29:25;3.40;;;3.10;;
15449;SDS011;7826;49.784;9.934;2023-07-29T12:31:57;3.40;;;3.10;;
15449;SDS011;7826;49.784;9.934;2023-07-29T12:34:29;3.33;;;3.07;;
15449;SDS011;7826;49.784;9.934;2023-07-29T12:36:57;4.00;;;3.33;;
15449;SDS011;7826;49.784;9.934;2023-07-29T12:39:26;3.20;;;3.00;;
15449;SDS011;7826;49.784;9.934;2023-07-29T12:41:57;3.47;;;3.23;;
15449;SDS011;7826;49.784;9.934;2023-07-29T12:44:25;3.40;;;3.20;;
15449;SDS011;7826;49.784;9.934;2023-07-29T12:46:53;5.57;;;3.30;;
15449;SDS011;7826;49.784;9.934;2023-07-29T12:49:19;3.30;;;3.00;;
15449;SDS011;7826;49.784;9.934;2023-07-29T12:51:46;2.70;;;2.30;;
15449;SDS011;7826;49.784;9.934;2023-07-29T12:54:12;2.40;;;2.20;;
15449;SDS011;7826;49.784;9.934;2023-07-29T12:56:39;3.23;;;2.60;;
15449;SDS011;7826;49.784;9.934;2023-07-29T12:59:05;3.80;;;2.70;;
15449;SDS011;7826;49.784;9.934;2023-07-29T13:01:32;1.93;;;1.83;;
15449;SDS011;7826;49.784;9.934;2023-07-29T13:03:58;2.10;;;1.73;;
15449;SDS011;7826;49.784;9.934;2023-07-29T13:06:25;2.27;;;1.97;;
15449;SDS011;7826;49.784;9.934;2023-07-29T13:08:51;2.63;;;1.80;;
15449;SDS011;7826;49.784;9.934;2023-07-29T13:11:18;1.73;;;1.60;;
15449;SDS011;7826;49.784;9.934;2023-07-29T13:13:44;1.97;;;1.50;;
15449;SDS011;7826;49.784;9.934;2023-07-29T13:16:11;1.43;;;1.43;;
15449;SDS011;7826;49.784;9.934;2023-07-29T13:18:39;1.70;;;1.60;;
15449;SDS011;7826;49.784;9.934;2023-07-29T13:21:06;1.40;;;1.40;;
15449;SDS011;7826;49.784;9.934;2023-07-29T13:23:33;1.70;;;1.60;;
15449;SDS011;7826;49.784;9.934;2023-07-29T13:26:00;1.67;;;1.57;;
15449;SDS011;7826;49.784;9.934;2023-07-29T13:28:26;1.60;;;1.50;;
15449;SDS011;7826;49.784;9.934;2023-07-29T13:30:53;1.90;;;1.80;;
15449;SDS011;7826;49.784;9.934;2023-07-29T13:33:20;1.87;;;1.77;;
15449;SDS011;7826;49.784;9.934;2023-07-29T13:35:46;2.03;;;1.67;;
15449;SDS011;7826;49.784;9.934;2023-07-29T13:38:13;1.87;;;1.77;;
15449;SDS011;7826;49.784;9.934;2023-07-29T13:40:39;1.70;;;1.60;;
15449;SDS011;7826;49.784;9.934;2023-07-29T13:43:06;2.47;;;2.00;;
15449;SDS011;7826;49.784;9.934;2023-07-29T13:45:33;1.77;;;1.67;;
15449;SDS011;7826;49.784;9.934;2023-07-29T13:48:00;1.73;;;1.53;;
15449;SDS011;7826;49.784;9.934;2023-07-29T13:50:27;2.93;;;1.90;;
15449;SDS011;7826;49.784;9.934;2023-07-29T13:52:53;3.10;;;1.80;;
15449;SDS011;7826;49.784;9.934;2023-07-29T13:55:20;1.60;;;1.60;;
15449;SDS011;7826;49.784;9.934;2023-07-29T13:57:46;2.93;;;1.60;;
15449;SDS011;7826;49.784;9.934;2023-07-29T14:00:13;1.87;;;1.77;;
15449;SDS011;7826;49.784;9.934;2023-07-29T14:02:40;1.70;;;1.60;;
15449;SDS011;7826;49.784;9.934;2023-07-29T14:05:08;1.77;;;1.67;;
15449;SDS011;7826;49.784;9.934;2023-07-29T14:07:35;1.90;;;1.80;;
15449;SDS011;7826;49.784;9.934;2023-07-29T14:10:01;1.83;;;1.73;;
15449;SDS011;7826;49.784;9.934;2023-07-29T14:12:28;1.70;;;1.60;;
15449;SDS011;7826;49.784;9.934;2023-07-29T14:14:54;1.93;;;1.80;;
15449;SDS011;7826;49.784;9.934;2023-07-29T14:17:21;5.40;;;1.97;;
15449;SDS011;7826;49.784;9.934;2023-07-29T14:19:47;2.13;;;2.00;;
15449;SDS011;7826;49.784;9.934;2023-07-29T14:22:14;1.67;;;1.57;;
15449;SDS011;7826;49.784;9.934;2023-07-29T14:24:40;2.13;;;1.50;;
15449;SDS011;7826;49.784;9.934;2023-07-29T14:27:07;3.07;;;1.77;;
15449;SDS011;7826;49.784;9.934;2023-07-29T14:29:33;1.80;;;1.70;;
15449;SDS011;7826;49.784;9.934;2023-07-29T14:31:59;1.90;;;1.80;;
15449;SDS011;7826;49.784;9.934;2023-07-29T14:34:26;1.80;;;1.70;;
15449;SDS011;7826;49.784;9.934;2023-07-29T14:36:52;1.60;;;1.53;;
15449;SDS011;7826;49.784;9.934;2023-07-29T14:39:19;1.93;;;1.83;;
15449;SDS011;7826;49.784;9.934;2023-07-29T14:41:45;1.70;;;1.60;;
15449;SDS011;7826;49.784;9.934;2023-07-29T14:44:12;1.80;;;1.70;;
15449;SDS011;7826;49.784;9.934;2023-07-29T14:46:38;2.27;;;1.70;;
15449;SDS011;7826;49.784;9.934;2023-07-29T14:49:05;1.60;;;1.50;;
15449;SDS011;7826;49.784;9.934;2023-07-29T14:51:32;1.97;;;1.57;;
15449;SDS011;7826;49.784;9.934;2023-07-29T14:53:58;2.63;;;1.60;;
15449;SDS011;7826;49.784;9.934;2023-07-29T14:56:24;1.37;;;1.30;;
15449;SDS011;7826;49.784;9.934;2023-07-29T14:58:51;1.70;;;1.60;;
15449;SDS011;7826;49.784;9.934;2023-07-29T15:01:17;1.70;;;1.60;;
15449;SDS011;7826;49.784;9.934;2023-07-29T15:03:44;3.90;;;1.80;;
15449;SDS011;7826;49.784;9.934;2023-07-29T15:06:10;5.23;;;2.40;;
15449;SDS011;7826;49.784;9.934;2023-07-29T15:08:37;4.03;;;2.60;;
15449;SDS011;7826;49.784;9.934;2023-07-29T15:11:03;5.77;;;2.47;;
15449;SDS011;7826;49.784;9.934;2023-07-29T15:13:30;7.53;;;2.57;;
15449;SDS011;7826;49.784;9.934;2023-07-29T15:15:56;5.20;;;2.50;;
15449;SDS011;7826;49.784;9.934;2023-07-29T15:18:23;2.47;;;1.73;;
15449;SDS011;7826;49.784;9.934;2023-07-29T15:20:49;3.10;;;1.90;;
15449;SDS011;7826;49.784;9.934;2023-07-29T15:23:17;1.97;;;1.80;;
15449;SDS011;7826;49.784;9.934;2023-07-29T15:25:43;3.33;;;2.00;;
15449;SDS011;7826;49.784;9.934;2023-07-29T15:28:10;6.50;;;1.80;;
15449;SDS011;7826;49.784;9.934;2023-07-29T15:30:36;3.67;;;2.00;;
15449;SDS011;7826;49.784;9.934;2023-07-29T15:33:03;2.80;;;1.97;;
15449;SDS011;7826;49.784;9.934;2023-07-29T15:35:29;3.80;;;1.97;;
15449;SDS011;7826;49.784;9.934;2023-07-29T15:38:06;2.60;;;1.70;;